createdAt,value
2019-02-16T00:00:51.969Z,30.10
2019-02-16T00:02:00.893Z,28.33
2019-02-16T00:03:09.707Z,32.60
2019-02-16T00:04:18.087Z,33.07
2019-02-16T00:05:26.902Z,38.80
2019-02-16T00:06:35.600Z,38.77
2019-02-16T00:07:44.344Z,42.37
2019-02-16T00:08:53.846Z,59.90
2019-02-16T00:10:07.138Z,30.00
2019-02-16T00:11:15.372Z,45.17
2019-02-16T00:12:23.498Z,34.93
2019-02-16T00:13:32.144Z,33.50
2019-02-16T00:14:41.032Z,45.90
2019-02-16T00:15:49.354Z,27.87
2019-02-16T00:16:57.882Z,39.67
2019-02-16T00:18:05.991Z,39.87
2019-02-16T00:19:15.882Z,51.87
2019-02-16T00:20:24.217Z,41.23
2019-02-16T00:21:32.374Z,45.03
2019-02-16T00:22:40.749Z,44.70
2019-02-16T00:23:49.022Z,33.27
2019-02-16T00:24:57.150Z,33.53
2019-02-16T00:26:05.655Z,31.83
2019-02-16T00:27:13.736Z,45.57
2019-02-16T00:28:22.868Z,28.47
2019-02-16T00:29:31.216Z,28.93
2019-02-16T00:30:39.529Z,38.80
2019-02-16T00:31:47.938Z,30.23
2019-02-16T00:32:56.112Z,45.17
2019-02-16T00:34:04.549Z,29.90
2019-02-16T00:35:12.732Z,36.97
2019-02-16T00:36:21.242Z,26.33
2019-02-16T00:37:29.445Z,37.40
2019-02-16T00:38:37.482Z,29.77
2019-02-16T00:39:45.613Z,46.07
2019-02-16T00:40:53.731Z,31.23
2019-02-16T00:42:01.970Z,37.13
2019-02-16T00:43:10.281Z,44.60
2019-02-16T00:44:18.632Z,31.53
2019-02-16T00:45:26.823Z,31.23
2019-02-16T00:46:35.286Z,45.03
2019-02-16T00:47:43.850Z,36.90
2019-02-16T00:48:52.230Z,31.87
2019-02-16T00:50:04.813Z,58.30
2019-02-16T00:51:14.089Z,28.07
2019-02-16T00:52:22.474Z,42.60
2019-02-16T00:53:30.641Z,39.60
2019-02-16T00:54:38.825Z,33.70
2019-02-16T00:55:47.330Z,46.60
2019-02-16T00:56:55.443Z,37.97
2019-02-16T00:58:03.780Z,41.07
2019-02-16T00:59:12.180Z,32.83
2019-02-16T01:00:20.743Z,33.13
2019-02-16T01:01:29.097Z,34.97
2019-02-16T01:02:37.859Z,56.50
2019-02-16T01:03:46.207Z,36.50
2019-02-16T01:04:54.729Z,36.90
2019-02-16T01:06:03.084Z,45.73
2019-02-16T01:07:11.472Z,38.33
2019-02-16T01:08:19.975Z,29.57
2019-02-16T01:09:28.934Z,28.57
2019-02-16T01:10:37.089Z,36.27
2019-02-16T01:11:45.385Z,45.33
2019-02-16T01:12:53.341Z,33.90
2019-02-16T01:14:01.380Z,36.90
2019-02-16T01:15:10.808Z,31.20
2019-02-16T01:16:18.934Z,23.17
2019-02-16T01:17:26.946Z,35.27
2019-02-16T01:18:35.129Z,42.57
2019-02-16T01:19:43.291Z,37.43
2019-02-16T01:20:51.692Z,40.90
2019-02-16T01:21:59.899Z,47.50
2019-02-16T01:23:07.746Z,39.63
2019-02-16T01:24:16.093Z,39.97
2019-02-16T01:25:24.193Z,31.80
2019-02-16T01:26:32.004Z,34.77
2019-02-16T01:27:40.528Z,20.60
2019-02-16T01:28:49.344Z,30.43
2019-02-16T01:29:57.515Z,47.23
2019-02-16T01:31:05.799Z,39.73
2019-02-16T01:32:14.451Z,34.03
2019-02-16T01:33:22.614Z,31.63
2019-02-16T01:34:31.110Z,29.90
2019-02-16T01:35:39.142Z,23.77
2019-02-16T01:36:47.468Z,33.13
2019-02-16T01:37:56.242Z,36.70
2019-02-16T01:39:05.679Z,47.07
2019-02-16T01:40:14.184Z,39.53
2019-02-16T01:41:22.485Z,38.53
2019-02-16T01:42:30.653Z,35.93
2019-02-16T01:43:39.159Z,51.37
2019-02-16T01:44:48.006Z,24.43
2019-02-16T01:45:56.493Z,44.23
2019-02-16T01:47:04.837Z,51.80
2019-02-16T01:48:13.229Z,44.97
2019-02-16T01:49:21.593Z,47.47
2019-02-16T01:50:30.113Z,34.40
2019-02-16T01:51:40.216Z,30.20
2019-02-16T01:52:48.992Z,21.50
2019-02-16T01:53:58.921Z,35.53
2019-02-16T01:55:09.977Z,20.63
2019-02-16T01:56:18.902Z,40.27
2019-02-16T01:57:27.708Z,29.63
2019-02-16T01:58:36.202Z,33.07
2019-02-16T01:59:45.645Z,32.50
2019-02-16T02:00:53.672Z,25.90
2019-02-16T02:02:01.820Z,39.47
2019-02-16T02:03:10.327Z,48.07
2019-02-16T02:04:18.379Z,30.80
2019-02-16T02:05:26.327Z,30.67
2019-02-16T02:06:34.715Z,30.87
2019-02-16T02:07:43.396Z,29.27
2019-02-16T02:08:51.791Z,30.47
2019-02-16T02:09:59.944Z,32.57
2019-02-16T02:11:08.588Z,39.63
2019-02-16T02:12:16.662Z,39.03
2019-02-16T02:13:24.960Z,30.77
2019-02-16T02:14:32.936Z,24.67
2019-02-16T02:15:41.236Z,29.13
2019-02-16T02:16:49.894Z,32.83
2019-02-16T02:17:58.051Z,30.17
2019-02-16T02:19:06.366Z,32.00
2019-02-16T02:20:14.442Z,23.33
2019-02-16T02:21:22.559Z,37.07
2019-02-16T02:22:31.042Z,34.17
2019-02-16T02:23:39.444Z,29.43
2019-02-16T02:24:48.080Z,32.50
2019-02-16T02:25:56.385Z,33.97
2019-02-16T02:27:04.682Z,27.23
2019-02-16T02:28:12.980Z,38.33
2019-02-16T02:29:21.178Z,38.80
2019-02-16T02:30:29.684Z,33.93
2019-02-16T02:31:38.091Z,26.63
2019-02-16T02:32:46.413Z,33.93
2019-02-16T02:33:54.403Z,34.87
2019-02-16T02:35:02.581Z,38.60
2019-02-16T02:36:10.662Z,38.47
2019-02-16T02:37:19.081Z,25.30
2019-02-16T02:38:26.942Z,35.30
2019-02-16T02:39:35.363Z,26.33
2019-02-16T02:40:43.399Z,50.40
2019-02-16T02:41:51.822Z,30.67
2019-02-16T02:42:59.929Z,25.20
2019-02-16T02:44:07.916Z,32.90
2019-02-16T02:45:16.361Z,42.47
2019-02-16T02:46:24.254Z,42.13
2019-02-16T02:47:32.366Z,41.67
2019-02-16T02:48:40.661Z,40.47
2019-02-16T02:49:48.818Z,38.13
2019-02-16T02:50:56.977Z,31.37
2019-02-16T02:52:05.053Z,33.50
2019-02-16T02:53:13.181Z,26.50
2019-02-16T02:54:21.289Z,36.03
2019-02-16T02:55:29.520Z,44.70
2019-02-16T02:56:37.827Z,37.90
2019-02-16T02:57:45.948Z,38.27
2019-02-16T02:58:53.841Z,25.03
2019-02-16T03:00:02.042Z,31.27
2019-02-16T03:01:12.749Z,33.13
2019-02-16T03:02:20.898Z,44.67
2019-02-16T03:03:29.096Z,43.20
2019-02-16T03:04:36.930Z,27.73
2019-02-16T03:05:45.814Z,35.63
2019-02-16T03:06:54.713Z,35.33
2019-02-16T03:08:03.133Z,32.77
2019-02-16T03:09:13.159Z,36.63
2019-02-16T03:10:21.417Z,34.33
2019-02-16T03:11:29.705Z,32.47
2019-02-16T03:12:40.320Z,27.37
2019-02-16T03:13:48.636Z,22.00
2019-02-16T03:14:57.019Z,34.00
2019-02-16T03:16:05.302Z,46.17
2019-02-16T03:17:14.099Z,43.57
2019-02-16T03:18:22.216Z,34.80
2019-02-16T03:19:30.430Z,32.23
2019-02-16T03:20:38.456Z,26.80
2019-02-16T03:21:46.759Z,23.80
2019-02-16T03:23:17.556Z,30.80
2019-02-16T03:24:25.651Z,33.27
2019-02-16T03:25:33.592Z,32.67
2019-02-16T03:26:49.070Z,41.43
2019-02-16T03:28:13.409Z,33.63
2019-02-16T03:29:40.187Z,31.37
2019-02-16T03:31:25.897Z,42.40
2019-02-16T03:33:06.865Z,28.77
2019-02-16T03:34:31.443Z,18.17
2019-02-16T03:35:59.168Z,27.17
2019-02-16T03:37:32.896Z,31.83
2019-02-16T03:39:12.273Z,33.77
2019-02-16T03:40:20.363Z,37.60
2019-02-16T03:41:28.648Z,39.50
2019-02-16T03:42:36.656Z,41.40
2019-02-16T03:43:44.939Z,21.57
2019-02-16T03:44:53.004Z,48.03
2019-02-16T03:46:00.941Z,31.73
2019-02-16T03:47:09.025Z,27.03
2019-02-16T03:48:17.373Z,35.70
2019-02-16T03:49:25.648Z,23.07
2019-02-16T03:50:33.636Z,19.40
2019-02-16T03:51:41.701Z,34.60
2019-02-16T03:52:49.949Z,44.17
2019-02-16T03:53:58.578Z,38.80
2019-02-16T03:55:07.524Z,36.20
2019-02-16T03:56:15.664Z,49.97
2019-02-16T03:57:23.828Z,34.13
2019-02-16T03:58:31.975Z,27.37
2019-02-16T03:59:40.434Z,23.53
2019-02-16T04:00:48.862Z,37.03
2019-02-16T04:01:56.897Z,32.63
2019-02-16T04:03:05.443Z,39.90
2019-02-16T04:04:13.627Z,28.27
2019-02-16T04:05:22.245Z,30.83
2019-02-16T04:06:30.287Z,37.27
2019-02-16T04:07:38.689Z,28.63
2019-02-16T04:08:46.947Z,38.33
2019-02-16T04:09:55.248Z,24.13
2019-02-16T04:11:03.141Z,29.90
2019-02-16T04:12:11.334Z,34.87
2019-02-16T04:13:19.784Z,32.87
2019-02-16T04:14:27.978Z,26.90
2019-02-16T04:15:36.080Z,40.73
2019-02-16T04:16:44.170Z,43.07
2019-02-16T04:17:53.091Z,38.13
2019-02-16T04:19:01.283Z,28.67
2019-02-16T04:20:09.495Z,36.57
2019-02-16T04:21:17.787Z,27.00
2019-02-16T04:22:25.815Z,25.23
2019-02-16T04:23:34.084Z,44.47
2019-02-16T04:24:42.588Z,37.03
2019-02-16T04:25:50.579Z,20.47
2019-02-16T04:26:58.575Z,33.63
2019-02-16T04:28:06.878Z,31.10
2019-02-16T04:29:15.185Z,24.50
2019-02-16T04:30:23.648Z,26.63
2019-02-16T04:31:31.800Z,27.47
2019-02-16T04:32:40.192Z,24.33
2019-02-16T04:33:48.760Z,27.40
2019-02-16T04:34:57.144Z,30.97
2019-02-16T04:36:05.407Z,35.50
2019-02-16T04:37:13.699Z,35.23
2019-02-16T04:38:21.760Z,39.03
2019-02-16T04:39:29.895Z,35.60
2019-02-16T04:40:38.050Z,33.93
2019-02-16T04:41:46.396Z,36.37
2019-02-16T04:42:54.484Z,42.67
2019-02-16T04:44:02.724Z,29.77
2019-02-16T04:45:11.117Z,30.70
2019-02-16T04:46:19.715Z,38.17
2019-02-16T04:47:30.562Z,28.23
2019-02-16T04:48:38.662Z,40.83
2019-02-16T04:49:47.151Z,32.27
2019-02-16T04:50:55.330Z,23.23
2019-02-16T04:52:03.841Z,33.37
2019-02-16T04:53:12.443Z,44.77
2019-02-16T04:54:20.779Z,38.50
2019-02-16T04:55:28.978Z,33.37
2019-02-16T04:56:37.176Z,37.93
2019-02-16T04:57:45.445Z,32.03
2019-02-16T04:58:53.966Z,45.10
2019-02-16T05:00:02.264Z,24.37
2019-02-16T05:01:10.606Z,39.47
2019-02-16T05:02:19.128Z,33.47
2019-02-16T05:03:27.394Z,33.50
2019-02-16T05:04:35.707Z,18.67
2019-02-16T05:05:44.187Z,34.47
2019-02-16T05:06:52.725Z,36.43
2019-02-16T05:08:00.917Z,37.97
2019-02-16T05:09:09.685Z,26.87
2019-02-16T05:10:17.685Z,24.73
2019-02-16T05:11:26.458Z,27.83
2019-02-16T05:12:34.840Z,27.63
2019-02-16T05:13:43.067Z,48.27
2019-02-16T05:14:51.355Z,31.83
2019-02-16T05:16:05.878Z,25.40
2019-02-16T05:17:14.315Z,36.13
2019-02-16T05:18:22.959Z,27.50
2019-02-16T05:19:32.091Z,24.43
2019-02-16T05:20:40.565Z,37.27
2019-02-16T05:21:49.473Z,38.63
2019-02-16T05:22:57.756Z,28.00
2019-02-16T05:24:05.825Z,29.00
2019-02-16T05:25:14.511Z,33.17
2019-02-16T05:26:23.509Z,37.73
2019-02-16T05:27:32.525Z,31.60
2019-02-16T05:28:40.783Z,39.73
2019-02-16T05:29:49.576Z,34.60
2019-02-16T05:30:58.027Z,49.10
2019-02-16T05:32:06.264Z,40.07
2019-02-16T05:33:14.716Z,26.37
2019-02-16T05:34:23.520Z,36.33
2019-02-16T05:35:31.977Z,32.90
2019-02-16T05:36:40.470Z,34.10
2019-02-16T05:37:48.555Z,34.70
2019-02-16T05:38:57.023Z,38.27
2019-02-16T05:40:07.943Z,31.73
2019-02-16T05:41:17.469Z,44.20
2019-02-16T05:42:28.223Z,20.47
2019-02-16T05:43:37.736Z,31.73
2019-02-16T05:44:47.474Z,23.10
2019-02-16T05:45:56.653Z,33.70
2019-02-16T05:47:06.112Z,41.60
2019-02-16T05:48:15.523Z,31.40
2019-02-16T05:49:25.394Z,26.63
2019-02-16T05:50:36.246Z,21.43
2019-02-16T05:51:45.773Z,33.60
2019-02-16T05:52:55.430Z,23.23
2019-02-16T05:54:05.481Z,27.33
2019-02-16T05:55:15.126Z,26.27
2019-02-16T05:56:24.666Z,24.40
2019-02-16T05:57:33.655Z,22.10
2019-02-16T05:58:43.640Z,28.17
2019-02-16T05:59:54.588Z,22.43
2019-02-16T06:01:04.480Z,26.13
2019-02-16T06:02:14.532Z,33.50
2019-02-16T06:03:24.862Z,30.93
2019-02-16T06:04:35.695Z,36.70
2019-02-16T06:05:45.806Z,27.83
2019-02-16T06:06:56.507Z,39.57
2019-02-16T06:08:06.063Z,26.23
2019-02-16T06:09:15.962Z,44.77
2019-02-16T06:10:26.702Z,23.40
2019-02-16T06:11:36.357Z,37.83
2019-02-16T06:12:45.442Z,27.50
2019-02-16T06:13:55.317Z,26.23
2019-02-16T06:15:07.773Z,21.57
2019-02-16T06:16:17.297Z,36.30
2019-02-16T06:17:27.985Z,28.27
2019-02-16T06:18:38.790Z,18.97
2019-02-16T06:19:48.371Z,24.27
2019-02-16T06:20:58.114Z,17.10
2019-02-16T06:22:07.910Z,23.90
2019-02-16T06:23:17.859Z,22.40
2019-02-16T06:24:27.853Z,14.57
2019-02-16T06:25:38.105Z,26.23
2019-02-16T06:26:48.166Z,27.77
2019-02-16T06:27:58.720Z,32.23
2019-02-16T06:29:09.144Z,25.33
2019-02-16T06:30:18.665Z,46.37
2019-02-16T06:31:28.280Z,18.63
2019-02-16T06:32:36.664Z,24.53
2019-02-16T06:33:45.473Z,18.73
2019-02-16T06:34:56.132Z,25.33
2019-02-16T06:36:06.666Z,32.40
2019-02-16T06:37:22.545Z,20.40
2019-02-16T06:38:31.237Z,24.20
2019-02-16T06:39:40.118Z,24.83
2019-02-16T06:40:49.260Z,27.73
2019-02-16T06:41:57.967Z,26.00
2019-02-16T06:43:06.637Z,21.50
2019-02-16T06:44:15.437Z,29.47
2019-02-16T06:45:24.040Z,29.97
2019-02-16T06:46:33.038Z,32.30
2019-02-16T06:47:41.730Z,29.80
2019-02-16T06:48:50.704Z,27.13
2019-02-16T06:49:59.403Z,21.37
2019-02-16T06:51:08.476Z,19.60
2019-02-16T06:52:17.136Z,17.93
2019-02-16T06:53:25.794Z,23.30
2019-02-16T06:54:34.417Z,13.43
2019-02-16T06:55:44.395Z,21.97
2019-02-16T06:57:11.227Z,23.63
2019-02-16T06:58:20.300Z,23.67
2019-02-16T06:59:29.226Z,26.90
2019-02-16T07:01:28.477Z,30.50
2019-02-16T07:02:40.446Z,19.83
2019-02-16T07:03:49.707Z,26.13
2019-02-16T07:04:58.481Z,33.17
2019-02-16T07:06:07.215Z,21.00
2019-02-16T07:07:16.210Z,37.50
2019-02-16T07:08:24.669Z,19.97
2019-02-16T07:10:38.961Z,32.90
2019-02-16T07:11:47.160Z,32.97
2019-02-16T07:12:55.659Z,35.37
2019-02-16T07:14:04.849Z,29.47
2019-02-16T07:15:13.811Z,30.70
2019-02-16T07:16:24.332Z,23.10
2019-02-16T07:17:52.696Z,23.60
2019-02-16T07:19:03.385Z,26.57
2019-02-16T07:20:11.948Z,29.90
2019-02-16T07:21:20.845Z,26.83
2019-02-16T07:22:29.739Z,24.77
2019-02-16T07:23:38.428Z,19.87
2019-02-16T07:24:47.169Z,20.53
2019-02-16T07:25:55.725Z,28.87
2019-02-16T07:27:04.429Z,22.27
2019-02-16T07:28:15.654Z,23.63
2019-02-16T07:29:24.062Z,27.13
2019-02-16T07:30:32.723Z,32.57
2019-02-16T07:31:42.496Z,28.93
2019-02-16T07:32:50.914Z,22.27
2019-02-16T07:33:59.487Z,25.33
2019-02-16T07:35:09.612Z,28.73
2019-02-16T07:36:18.397Z,25.10
2019-02-16T07:37:27.195Z,29.13
2019-02-16T07:38:35.856Z,26.43
2019-02-16T07:39:45.302Z,38.10
2019-02-16T07:40:53.875Z,28.57
2019-02-16T07:42:29.939Z,30.03
2019-02-16T07:43:48.539Z,40.33
2019-02-16T07:44:59.651Z,35.30
2019-02-16T07:46:28.179Z,45.00
2019-02-16T07:47:38.804Z,26.30
2019-02-16T07:48:50.589Z,31.97
2019-02-16T07:50:05.282Z,28.37
2019-02-16T07:51:15.503Z,29.23
2019-02-16T07:52:24.093Z,39.70
2019-02-16T07:53:43.747Z,39.97
2019-02-16T07:55:03.150Z,27.90
2019-02-16T07:56:13.295Z,39.20
2019-02-16T07:57:23.495Z,31.63
2019-02-16T07:58:34.019Z,29.17
2019-02-16T07:59:46.802Z,38.53
2019-02-16T08:01:19.483Z,34.80
2019-02-16T08:02:29.715Z,31.13
2019-02-16T08:03:45.654Z,27.83
2019-02-16T08:04:56.351Z,27.50
2019-02-16T08:06:04.663Z,21.60
2019-02-16T08:07:15.272Z,31.87
2019-02-16T08:08:31.568Z,34.90
2019-02-16T08:09:48.805Z,29.70
2019-02-16T08:11:17.939Z,27.33
2019-02-16T08:12:38.386Z,20.13
2019-02-16T08:13:51.326Z,21.17
2019-02-16T08:15:10.576Z,18.90
2019-02-16T08:16:26.232Z,30.63
2019-02-16T08:17:38.920Z,31.17
2019-02-16T08:18:59.419Z,26.93
2019-02-16T08:20:12.903Z,34.33
2019-02-16T08:21:35.381Z,28.75
2019-02-16T08:22:45.545Z,28.60
2019-02-16T08:23:59.443Z,19.60
2019-02-16T08:25:26.801Z,26.20
2019-02-16T08:26:35.007Z,17.45
2019-02-16T08:27:57.473Z,19.27
2019-02-16T08:29:16.857Z,25.55
2019-02-16T08:30:39.474Z,24.23
2019-02-16T08:31:49.969Z,21.55
2019-02-16T08:33:05.989Z,29.90
2019-02-16T08:34:19.687Z,34.30
2019-02-16T08:35:35.409Z,29.40
2019-02-16T08:36:52.262Z,33.28
2019-02-16T08:38:08.056Z,45.45
2019-02-16T08:39:21.620Z,25.05
2019-02-16T08:40:46.958Z,22.00
2019-02-16T08:42:00.180Z,23.52
2019-02-16T08:43:17.827Z,24.63
2019-02-16T08:44:34.174Z,29.50
2019-02-16T08:46:01.160Z,27.50
2019-02-16T08:47:14.408Z,20.45
2019-02-16T08:48:23.036Z,28.57
2019-02-16T08:49:32.882Z,25.72
2019-02-16T08:50:49.763Z,27.65
2019-02-16T08:52:15.006Z,21.75
2019-02-16T08:53:49.555Z,23.92
2019-02-16T08:54:56.718Z,22.55
2019-02-16T08:56:07.440Z,19.52
2019-02-16T08:57:23.829Z,19.85
2019-02-16T08:58:38.899Z,24.15
2019-02-16T09:00:05.409Z,17.45
2019-02-16T09:01:31.720Z,22.02
2019-02-16T09:02:46.250Z,21.48
2019-02-16T09:04:12.491Z,21.97
2019-02-16T09:05:21.711Z,17.90
2019-02-16T09:06:40.967Z,18.10
2019-02-16T09:07:55.607Z,21.60
2019-02-16T09:09:22.685Z,19.40
2019-02-16T09:10:48.968Z,20.17
2019-02-16T09:12:06.465Z,21.30
2019-02-16T09:13:17.364Z,17.37
2019-02-16T09:14:41.837Z,14.68
2019-02-16T09:15:54.852Z,27.75
2019-02-16T09:17:08.665Z,17.07
2019-02-16T09:18:28.587Z,23.80
2019-02-16T09:19:49.604Z,20.85
2019-02-16T09:21:02.683Z,21.05
2019-02-16T09:22:13.704Z,15.68
2019-02-16T09:23:33.107Z,21.12
2019-02-16T09:24:44.778Z,19.37
2019-02-16T09:26:02.702Z,24.27
2019-02-16T09:27:13.554Z,23.15
2019-02-16T09:28:23.750Z,15.98
2019-02-16T09:29:37.332Z,17.27
2019-02-16T09:30:47.879Z,15.53
2019-02-16T09:32:13.936Z,20.65
2019-02-16T09:33:27.551Z,20.82
2019-02-16T09:34:37.953Z,15.72
2019-02-16T09:35:57.930Z,20.35
2019-02-16T09:37:08.650Z,16.32
2019-02-16T09:38:21.960Z,14.25
2019-02-16T09:39:35.076Z,17.77
2019-02-16T09:41:01.535Z,14.10
2019-02-16T09:42:24.938Z,16.45
2019-02-16T09:43:33.135Z,15.60
2019-02-16T09:45:00.258Z,15.43
2019-02-16T09:46:10.828Z,16.65
2019-02-16T09:47:20.940Z,16.23
2019-02-16T09:48:36.792Z,16.75
2019-02-16T09:49:59.416Z,15.53
2019-02-16T09:51:13.833Z,16.42
2019-02-16T09:52:31.485Z,16.27
2019-02-16T09:53:48.485Z,19.48
2019-02-16T09:55:13.869Z,16.65
2019-02-16T09:56:30.451Z,15.60
2019-02-16T09:57:56.774Z,18.55
2019-02-16T09:59:09.913Z,12.68
2019-02-16T10:00:25.981Z,11.22
2019-02-16T10:01:39.141Z,11.05
2019-02-16T10:02:49.340Z,14.00
2019-02-16T10:03:59.985Z,16.17
2019-02-16T10:05:28.981Z,13.83
2019-02-16T10:06:51.975Z,12.80
2019-02-16T10:07:59.915Z,13.40
2019-02-16T10:09:10.464Z,11.10
2019-02-16T10:10:37.004Z,8.28
2019-02-16T10:11:47.252Z,11.28
2019-02-16T10:13:05.888Z,16.12
2019-02-16T10:14:22.459Z,17.25
2019-02-16T10:15:47.688Z,9.90
2019-02-16T10:16:57.696Z,8.15
2019-02-16T10:18:12.473Z,13.70
2019-02-16T10:19:41.033Z,13.15
2019-02-16T10:20:56.946Z,11.45
2019-02-16T10:22:15.695Z,9.10
2019-02-16T10:23:42.015Z,12.53
2019-02-16T10:25:09.154Z,16.32
2019-02-16T10:26:22.166Z,12.18
2019-02-16T10:27:41.392Z,13.88
2019-02-16T10:28:52.077Z,12.20
2019-02-16T10:30:02.113Z,12.55
2019-02-16T10:31:25.070Z,10.58
2019-02-16T10:32:47.355Z,14.90
2019-02-16T10:33:55.498Z,15.18
2019-02-16T10:35:05.336Z,11.12
2019-02-16T10:36:30.189Z,14.93
2019-02-16T10:37:40.388Z,15.15
2019-02-16T10:38:56.557Z,12.70
2019-02-16T10:40:10.528Z,12.25
2019-02-16T10:41:29.605Z,17.42
2019-02-16T10:42:39.694Z,14.15
2019-02-16T10:43:49.740Z,10.85
2019-02-16T10:45:18.211Z,9.13
2019-02-16T10:46:44.287Z,8.83
2019-02-16T10:48:03.230Z,14.35
2019-02-16T10:49:22.538Z,10.03
2019-02-16T10:50:38.389Z,14.53
2019-02-16T10:52:06.059Z,11.73
2019-02-16T10:53:31.994Z,10.23
2019-02-16T10:54:54.085Z,9.38
2019-02-16T10:56:07.275Z,10.78
2019-02-16T10:57:34.780Z,14.45
2019-02-16T10:58:47.842Z,15.10
2019-02-16T10:59:58.147Z,17.32
2019-02-16T11:01:07.120Z,16.23
2019-02-16T11:02:17.097Z,11.90
2019-02-16T11:03:26.834Z,14.50
2019-02-16T11:04:56.743Z,10.48
2019-02-16T11:06:06.448Z,12.98
2019-02-16T11:07:33.121Z,9.65
2019-02-16T11:08:43.065Z,12.28
2019-02-16T11:09:55.855Z,11.83
2019-02-16T11:11:09.991Z,10.35
2019-02-16T11:12:22.452Z,13.35
2019-02-16T11:13:47.819Z,10.93
2019-02-16T11:15:09.506Z,11.57
2019-02-16T11:16:37.294Z,14.20
2019-02-16T11:17:53.150Z,10.23
2019-02-16T11:19:15.166Z,12.73
2019-02-16T11:20:41.700Z,11.55
2019-02-16T11:22:00.291Z,9.28
2019-02-16T11:23:10.393Z,14.30
2019-02-16T11:24:24.012Z,11.78
2019-02-16T11:25:36.657Z,10.00
2019-02-16T11:27:03.155Z,9.28
2019-02-16T11:28:14.223Z,10.85
2019-02-16T11:29:32.303Z,7.95
2019-02-16T11:30:40.656Z,11.85
2019-02-16T11:31:53.429Z,7.97
2019-02-16T11:33:04.992Z,12.82
2019-02-16T11:34:33.136Z,10.40
2019-02-16T11:35:43.243Z,8.45
2019-02-16T11:36:52.954Z,9.13
2019-02-16T11:38:12.029Z,12.93
2019-02-16T11:39:38.261Z,11.05
2019-02-16T11:40:51.411Z,10.45
2019-02-16T11:42:07.551Z,9.55
2019-02-16T11:43:29.686Z,6.50
2019-02-16T11:44:45.875Z,12.33
2019-02-16T11:46:01.734Z,14.23
2019-02-16T11:47:14.265Z,10.70
2019-02-16T11:48:24.073Z,9.98
2019-02-16T11:49:32.398Z,10.32
2019-02-16T11:50:48.276Z,12.73
2019-02-16T11:52:01.170Z,10.65
2019-02-16T11:53:20.226Z,8.95
2019-02-16T11:54:32.641Z,10.90
2019-02-16T11:55:42.668Z,6.87
2019-02-16T11:57:01.863Z,9.63
2019-02-16T11:58:17.599Z,9.53
2019-02-16T11:59:30.491Z,9.03
2019-02-16T12:00:43.090Z,11.57
2019-02-16T12:01:59.336Z,11.10
2019-02-16T12:03:19.235Z,11.43
2019-02-16T12:04:29.531Z,10.65
2019-02-16T12:05:42.206Z,11.08
2019-02-16T12:06:52.042Z,11.93
2019-02-16T12:08:18.321Z,8.73
2019-02-16T12:09:41.175Z,9.38
2019-02-16T12:11:01.184Z,6.87
2019-02-16T12:12:11.565Z,8.95
2019-02-16T12:13:21.559Z,11.88
2019-02-16T12:14:45.547Z,8.10
2019-02-16T12:16:11.697Z,10.03
2019-02-16T12:17:24.442Z,6.92
2019-02-16T12:18:37.399Z,9.13
2019-02-16T12:19:56.613Z,8.75
2019-02-16T12:21:19.084Z,12.78
2019-02-16T12:22:41.935Z,7.30
2019-02-16T12:23:57.242Z,8.95
2019-02-16T12:25:17.371Z,7.65
2019-02-16T12:26:27.251Z,8.38
2019-02-16T12:27:46.040Z,8.85
2019-02-16T12:29:01.648Z,9.75
2019-02-16T12:30:16.475Z,10.10
2019-02-16T12:31:42.492Z,9.88
2019-02-16T12:32:52.560Z,12.20
2019-02-16T12:34:12.063Z,12.10
2019-02-16T12:35:28.286Z,8.73
2019-02-16T12:36:55.823Z,8.10
2019-02-16T12:38:14.439Z,9.20
2019-02-16T12:39:25.826Z,9.40
2019-02-16T12:40:38.419Z,9.05
2019-02-16T12:41:48.380Z,11.70
2019-02-16T12:43:14.170Z,11.95
2019-02-16T12:44:32.547Z,13.72
2019-02-16T12:45:50.836Z,14.23
2019-02-16T12:47:07.914Z,11.73
2019-02-16T12:48:16.247Z,12.20
2019-02-16T12:49:25.923Z,12.47
2019-02-16T12:50:45.138Z,11.20
2019-02-16T12:52:04.076Z,14.50
2019-02-16T12:53:14.273Z,10.55
2019-02-16T12:54:24.416Z,10.20
2019-02-16T12:55:50.561Z,7.45
2019-02-16T12:57:03.699Z,9.35
2019-02-16T12:58:18.931Z,13.05
2019-02-16T12:59:30.913Z,10.05
2019-02-16T13:00:57.078Z,12.98
2019-02-16T13:02:08.455Z,8.70
2019-02-16T13:03:24.171Z,13.03
2019-02-16T13:04:40.015Z,12.75
2019-02-16T13:06:06.030Z,11.38
2019-02-16T13:07:22.447Z,11.33
2019-02-16T13:08:51.013Z,11.08
2019-02-16T13:10:01.147Z,10.25
2019-02-16T13:11:13.888Z,8.53
2019-02-16T13:12:29.939Z,12.58
2019-02-16T13:13:38.457Z,8.35
2019-02-16T13:15:04.347Z,9.13
2019-02-16T13:16:29.751Z,8.68
2019-02-16T13:17:42.891Z,7.95
2019-02-16T13:18:55.503Z,9.70
2019-02-16T13:20:08.298Z,10.58
2019-02-16T13:21:18.474Z,9.03
2019-02-16T13:22:28.355Z,8.78
2019-02-16T13:23:54.528Z,9.88
2019-02-16T13:25:04.598Z,9.33
2019-02-16T13:26:25.071Z,13.45
2019-02-16T13:27:37.942Z,11.63
2019-02-16T13:28:45.795Z,10.20
2019-02-16T13:30:01.775Z,12.53
2019-02-16T13:31:17.685Z,9.60
2019-02-16T13:32:39.380Z,10.28
2019-02-16T13:33:49.870Z,9.85
2019-02-16T13:34:59.794Z,10.08
2019-02-16T13:36:16.186Z,12.00
2019-02-16T13:37:39.450Z,12.37
2019-02-16T13:39:05.841Z,11.63
2019-02-16T13:40:23.359Z,9.40
2019-02-16T13:41:45.852Z,8.90
2019-02-16T13:43:01.634Z,10.23
2019-02-16T13:44:11.685Z,11.75
2019-02-16T13:45:27.429Z,9.15
2019-02-16T13:46:38.560Z,9.23
2019-02-16T13:48:04.791Z,10.93
2019-02-16T13:49:14.661Z,9.20
2019-02-16T13:50:25.248Z,14.90
2019-02-16T13:51:51.945Z,11.88
2019-02-16T13:53:01.844Z,11.33
2019-02-16T13:54:23.452Z,11.33
2019-02-16T13:55:49.326Z,8.08
2019-02-16T13:57:02.770Z,12.65
2019-02-16T13:58:18.714Z,13.53
2019-02-16T13:59:44.528Z,9.05
2019-02-16T14:00:54.387Z,10.38
2019-02-16T14:02:10.272Z,10.55
2019-02-16T14:03:22.888Z,9.93
2019-02-16T14:04:43.322Z,7.87
2019-02-16T14:06:09.740Z,13.35
2019-02-16T14:07:19.703Z,12.37
2019-02-16T14:08:38.072Z,17.00
2019-02-16T14:09:53.669Z,14.53
2019-02-16T14:11:19.583Z,8.50
2019-02-16T14:12:32.265Z,14.60
2019-02-16T14:13:45.221Z,9.90
2019-02-16T14:15:03.897Z,11.35
2019-02-16T14:16:14.192Z,13.28
2019-02-16T14:17:24.060Z,10.28
2019-02-16T14:18:32.403Z,11.03
2019-02-16T14:19:40.849Z,15.13
2019-02-16T14:20:49.213Z,9.40
2019-02-16T14:21:58.927Z,9.30
2019-02-16T14:23:07.309Z,9.38
2019-02-16T14:24:15.487Z,9.50
2019-02-16T14:25:31.272Z,8.78
2019-02-16T14:26:40.182Z,11.15
2019-02-16T14:27:49.280Z,9.50
2019-02-16T14:28:57.301Z,13.93
2019-02-16T14:30:08.347Z,8.33
2019-02-16T14:31:18.054Z,11.28
2019-02-16T14:32:26.705Z,11.43
2019-02-16T14:33:34.705Z,11.75
2019-02-16T14:34:42.889Z,12.78
2019-02-16T14:35:51.395Z,11.12
2019-02-16T14:37:00.281Z,9.68
2019-02-16T14:38:15.991Z,13.28
2019-02-16T14:39:25.967Z,8.23
2019-02-16T14:40:34.132Z,10.23
2019-02-16T14:41:42.518Z,11.68
2019-02-16T14:42:50.815Z,10.18
2019-02-16T14:43:59.067Z,9.05
2019-02-16T14:45:11.877Z,6.83
2019-02-16T14:46:19.988Z,11.90
2019-02-16T14:47:28.018Z,16.57
2019-02-16T14:48:36.390Z,12.53
2019-02-16T14:49:44.778Z,11.30
2019-02-16T14:50:52.943Z,9.18
2019-02-16T14:52:01.350Z,13.60
2019-02-16T14:53:09.702Z,12.88
2019-02-16T14:54:18.753Z,8.78
2019-02-16T14:55:27.277Z,11.12
2019-02-16T14:56:35.443Z,12.43
2019-02-16T14:57:45.084Z,12.00
2019-02-16T14:58:53.058Z,11.15
2019-02-16T15:00:01.309Z,11.93
2019-02-16T15:01:09.472Z,11.10
2019-02-16T15:02:17.682Z,9.95
2019-02-16T15:03:26.105Z,8.18
2019-02-16T15:04:34.366Z,18.77
2019-02-16T15:05:42.487Z,11.03
2019-02-16T15:06:51.008Z,16.00
2019-02-16T15:07:59.145Z,12.73
2019-02-16T15:09:08.867Z,10.48
2019-02-16T15:10:17.334Z,9.33
2019-02-16T15:11:25.935Z,8.63
2019-02-16T15:12:35.307Z,9.20
2019-02-16T15:13:45.030Z,7.90
2019-02-16T15:14:53.772Z,8.33
2019-02-16T15:16:02.017Z,12.10
2019-02-16T15:17:10.421Z,9.97
2019-02-16T15:18:19.152Z,8.37
2019-02-16T15:19:27.610Z,8.03
2019-02-16T15:20:36.350Z,9.60
2019-02-16T15:21:44.872Z,15.53
2019-02-16T15:22:54.709Z,7.67
2019-02-16T15:24:02.870Z,5.93
2019-02-16T15:25:12.935Z,10.40
2019-02-16T15:26:28.331Z,11.17
2019-02-16T15:27:31.448Z,12.70
2019-02-16T15:28:41.029Z,8.13
2019-02-16T15:29:50.000Z,9.03
2019-02-16T15:30:58.773Z,6.80
2019-02-16T15:32:07.116Z,7.00
2019-02-16T15:33:15.976Z,9.57
2019-02-16T15:34:24.586Z,15.13
2019-02-16T15:35:33.136Z,8.70
2019-02-16T15:36:42.280Z,8.87